createdAt,value
2018-12-04T00:02:03.822Z,11.20
2018-12-04T00:04:37.510Z,11.10
2018-12-04T00:07:11.097Z,11.10
2018-12-04T00:09:44.790Z,11.00
2018-12-04T00:12:18.437Z,11.00
2018-12-04T00:14:52.126Z,11.00
2018-12-04T00:17:25.761Z,10.90
2018-12-04T00:19:59.579Z,10.80
2018-12-04T00:22:33.434Z,10.70
2018-12-04T00:25:07.150Z,10.60
2018-12-04T00:27:40.970Z,10.40
2018-12-04T00:30:14.700Z,10.30
2018-12-04T00:32:48.597Z,10.30
2018-12-04T00:35:22.285Z,10.20
2018-12-04T00:37:55.938Z,10.20
2018-12-04T00:40:29.713Z,10.10
2018-12-04T00:43:03.599Z,10.00
2018-12-04T00:45:37.417Z,9.80
2018-12-04T00:48:11.189Z,9.70
2018-12-04T00:50:45.075Z,9.60
2018-12-04T00:53:18.806Z,9.50
2018-12-04T00:55:52.466Z,9.40
2018-12-04T00:58:26.035Z,9.40
2018-12-04T01:00:59.781Z,9.30
2018-12-04T01:03:33.595Z,9.30
2018-12-04T01:06:07.309Z,9.40
2018-12-04T01:08:40.973Z,9.40
2018-12-04T01:11:14.651Z,9.40
2018-12-04T01:13:48.194Z,9.30
2018-12-04T01:16:21.865Z,9.30
2018-12-04T01:18:55.434Z,9.50
2018-12-04T01:21:29.097Z,9.40
2018-12-04T01:24:02.790Z,9.40
2018-12-04T01:26:36.573Z,9.30
2018-12-04T01:29:10.382Z,9.40
2018-12-04T01:31:44.284Z,9.40
2018-12-04T01:34:18.041Z,9.40
2018-12-04T01:36:51.809Z,9.40
2018-12-04T01:39:25.477Z,9.40
2018-12-04T01:41:59.002Z,9.40
2018-12-04T01:44:32.662Z,9.40
2018-12-04T01:47:06.665Z,9.40
2018-12-04T01:49:40.489Z,9.50
2018-12-04T01:52:14.417Z,9.50
2018-12-04T01:54:48.153Z,9.60
2018-12-04T01:57:21.817Z,9.60
2018-12-04T01:59:55.373Z,9.40
2018-12-04T02:02:29.014Z,9.50
2018-12-04T02:05:02.713Z,9.40
2018-12-04T02:07:36.466Z,9.40
2018-12-04T02:10:10.221Z,9.40
2018-12-04T02:12:43.965Z,9.40
2018-12-04T02:15:17.642Z,9.30
2018-12-04T02:17:51.522Z,9.30
2018-12-04T02:20:25.328Z,9.30
2018-12-04T02:22:58.937Z,9.20
2018-12-04T02:25:32.548Z,9.20
2018-12-04T02:28:06.190Z,9.30
2018-12-04T02:30:39.785Z,9.20
2018-12-04T02:33:13.474Z,9.10
2018-12-04T02:35:47.069Z,9.10
2018-12-04T02:38:20.651Z,9.10
2018-12-04T02:40:54.229Z,9.10
2018-12-04T02:43:27.897Z,9.10
2018-12-04T02:46:01.530Z,9.10
2018-12-04T02:48:35.852Z,9.10
2018-12-04T02:51:09.657Z,9.10
2018-12-04T02:53:43.412Z,9.10
2018-12-04T02:56:17.001Z,9.10
2018-12-04T02:58:50.711Z,9.10
2018-12-04T03:01:24.250Z,9.10
2018-12-04T03:03:57.894Z,9.00
2018-12-04T03:06:31.502Z,9.00
2018-12-04T03:09:07.210Z,9.00
2018-12-04T03:11:40.849Z,9.00
2018-12-04T03:14:43.345Z,9.00
2018-12-04T03:17:15.657Z,9.10
2018-12-04T03:19:48.191Z,9.00
2018-12-04T03:22:20.665Z,8.90
2018-12-04T03:24:53.146Z,8.90
2018-12-04T03:27:25.614Z,8.90
2018-12-04T03:29:58.037Z,8.80
2018-12-04T03:32:30.414Z,8.80
2018-12-04T03:35:03.573Z,8.80
2018-12-04T03:37:36.049Z,8.90
2018-12-04T03:40:08.582Z,8.80
2018-12-04T03:42:40.864Z,8.80
2018-12-04T03:45:13.322Z,8.80
2018-12-04T03:47:45.697Z,8.70
2018-12-04T03:50:18.195Z,8.70
2018-12-04T03:52:50.610Z,8.70
2018-12-04T03:55:23.027Z,8.70
2018-12-04T03:57:55.375Z,8.70
2018-12-04T04:00:27.885Z,8.80
2018-12-04T04:03:00.257Z,8.80
2018-12-04T04:05:32.718Z,8.70
2018-12-04T04:08:05.123Z,8.70
2018-12-04T04:10:37.561Z,8.60
2018-12-04T04:13:10.009Z,8.70
2018-12-04T04:15:42.397Z,8.70
2018-12-04T04:18:14.846Z,8.70
2018-12-04T04:20:48.641Z,8.70
2018-12-04T04:23:21.187Z,8.70
2018-12-04T04:25:53.521Z,8.70
2018-12-04T04:28:25.877Z,8.60
2018-12-04T04:30:58.365Z,8.60
2018-12-04T04:33:30.769Z,8.60
2018-12-04T04:36:03.158Z,8.50
2018-12-04T04:38:35.486Z,8.50
2018-12-04T04:41:07.921Z,8.60
2018-12-04T04:43:40.267Z,8.60
2018-12-04T04:46:12.810Z,8.60
2018-12-04T04:48:45.176Z,8.60
2018-12-04T04:51:17.695Z,8.60
2018-12-04T04:53:50.094Z,8.60
2018-12-04T04:56:22.511Z,8.60
2018-12-04T04:58:54.885Z,8.60
2018-12-04T05:01:27.330Z,8.50
2018-12-04T05:03:59.679Z,8.60
2018-12-04T05:06:32.025Z,8.60
2018-12-04T05:09:05.078Z,8.60
2018-12-04T05:11:37.359Z,8.50
2018-12-04T05:14:09.834Z,8.60
2018-12-04T05:16:42.276Z,8.60
2018-12-04T05:19:14.670Z,8.50
2018-12-04T05:21:47.029Z,8.50
2018-12-04T05:24:19.449Z,8.50
2018-12-04T05:26:51.909Z,8.40
2018-12-04T05:29:24.383Z,8.40
2018-12-04T05:31:56.866Z,8.50
2018-12-04T05:34:29.318Z,8.40
2018-12-04T05:37:01.770Z,8.40
2018-12-04T05:39:34.153Z,8.30
2018-12-04T05:42:06.598Z,8.30
2018-12-04T05:44:38.910Z,8.30
2018-12-04T05:47:11.458Z,8.40
2018-12-04T05:49:43.933Z,8.20
2018-12-04T05:52:16.484Z,8.20
2018-12-04T05:54:48.759Z,8.20
2018-12-04T05:57:21.229Z,8.20
2018-12-04T05:59:53.698Z,8.20
2018-12-04T06:02:26.121Z,8.30
2018-12-04T06:04:58.497Z,8.30
2018-12-04T06:07:30.718Z,8.20
2018-12-04T06:10:04.544Z,8.20
2018-12-04T06:12:36.970Z,8.20
2018-12-04T06:15:09.393Z,8.20
2018-12-04T06:17:41.901Z,8.20
2018-12-04T06:20:14.525Z,8.30
2018-12-04T06:22:46.845Z,8.30
2018-12-04T06:25:19.162Z,8.30
2018-12-04T06:27:51.561Z,8.30
2018-12-04T06:30:24.074Z,8.20
2018-12-04T06:32:56.524Z,8.10
2018-12-04T06:35:28.978Z,8.10
2018-12-04T06:38:01.476Z,8.00
2018-12-04T06:40:33.999Z,8.00
2018-12-04T06:43:06.418Z,8.00
2018-12-04T06:45:38.776Z,7.90
2018-12-04T06:48:11.217Z,7.90
2018-12-04T06:50:43.649Z,7.90
2018-12-04T06:53:16.053Z,7.90
2018-12-04T06:55:48.470Z,7.90
2018-12-04T06:58:20.945Z,8.00
2018-12-04T07:00:53.497Z,8.00
2018-12-04T07:03:25.727Z,8.00
2018-12-04T07:05:58.127Z,8.00
2018-12-04T07:08:30.557Z,8.00
2018-12-04T07:11:02.996Z,8.10
2018-12-04T07:13:35.453Z,8.20
2018-12-04T07:16:07.849Z,8.20
2018-12-04T07:18:40.211Z,8.20
2018-12-04T07:21:12.558Z,8.10
2018-12-04T07:23:44.937Z,8.10
2018-12-04T07:26:17.334Z,8.00
2018-12-04T07:28:49.831Z,8.10
2018-12-04T07:31:22.187Z,8.10
2018-12-04T07:33:54.653Z,8.00
2018-12-04T07:36:27.013Z,8.10
2018-12-04T07:38:59.545Z,8.20
2018-12-04T07:41:31.890Z,8.20
2018-12-04T07:44:04.474Z,8.10
2018-12-04T07:46:36.786Z,8.20
2018-12-04T07:49:09.210Z,8.10
2018-12-04T07:51:41.630Z,8.10
2018-12-04T07:54:14.170Z,8.20
2018-12-04T07:56:46.625Z,8.20
2018-12-04T07:59:18.989Z,8.20
2018-12-04T08:01:51.409Z,8.10
2018-12-04T08:04:30.794Z,8.20
2018-12-04T08:07:03.021Z,8.10
2018-12-04T08:09:35.443Z,8.10
2018-12-04T08:12:07.806Z,8.30
2018-12-04T08:14:40.317Z,8.30
2018-12-04T08:17:12.842Z,8.30
2018-12-04T08:19:45.238Z,8.30
2018-12-04T08:22:17.693Z,8.40
2018-12-04T08:24:50.158Z,8.40
2018-12-04T08:27:22.506Z,8.40
2018-12-04T08:29:54.921Z,8.40
2018-12-04T08:32:27.266Z,8.40
2018-12-04T08:34:59.703Z,8.50
2018-12-04T08:37:32.062Z,8.50
2018-12-04T08:40:05.945Z,8.50
2018-12-04T08:42:38.297Z,8.50
2018-12-04T08:45:10.729Z,8.50
2018-12-04T08:47:43.113Z,8.50
2018-12-04T08:50:15.483Z,8.50
2018-12-04T08:52:47.785Z,8.50
2018-12-04T08:55:20.030Z,8.40
2018-12-04T08:57:52.497Z,8.30
2018-12-04T09:00:25.227Z,8.30
2018-12-04T09:02:57.558Z,8.40
2018-12-04T09:05:29.934Z,8.30
2018-12-04T09:08:02.525Z,8.30
2018-12-04T09:10:34.840Z,8.30
2018-12-04T09:13:07.214Z,8.20
2018-12-04T09:15:39.705Z,8.40
2018-12-04T09:18:12.219Z,8.20
2018-12-04T09:20:44.671Z,8.30
2018-12-04T09:23:17.034Z,8.20
2018-12-04T09:25:49.597Z,8.30
2018-12-04T09:28:21.986Z,8.50
2018-12-04T09:30:54.473Z,8.60
2018-12-04T09:33:26.939Z,8.70
2018-12-04T09:35:59.387Z,8.80
2018-12-04T09:38:31.870Z,8.90
2018-12-04T09:41:04.343Z,8.90
2018-12-04T09:43:36.657Z,9.00
2018-12-04T09:46:09.122Z,8.90
2018-12-04T09:48:48.454Z,9.00
2018-12-04T09:51:20.842Z,9.00
2018-12-04T09:53:53.230Z,9.00
2018-12-04T09:56:25.625Z,9.00
2018-12-04T09:58:58.146Z,9.20
2018-12-04T10:01:30.542Z,9.30
2018-12-04T10:04:03.141Z,9.50
2018-12-04T10:06:35.497Z,9.60
2018-12-04T10:09:07.894Z,9.50
2018-12-04T10:11:40.349Z,9.50
2018-12-04T10:14:12.833Z,9.40
2018-12-04T10:16:45.333Z,9.40
2018-12-04T10:19:17.994Z,9.30
2018-12-04T10:21:50.409Z,9.10
2018-12-04T10:24:22.974Z,9.20
2018-12-04T10:26:56.070Z,9.20
2018-12-04T10:29:28.458Z,9.10
2018-12-04T10:32:00.808Z,9.10
2018-12-04T10:34:33.237Z,9.20
2018-12-04T10:37:05.737Z,9.20
2018-12-04T10:39:38.302Z,9.10
2018-12-04T10:42:10.738Z,9.00
2018-12-04T10:44:43.256Z,9.00
2018-12-04T10:47:15.465Z,9.20
2018-12-04T10:49:47.823Z,9.30
2018-12-04T10:52:20.228Z,9.40
2018-12-04T10:54:52.623Z,9.50
2018-12-04T10:57:25.081Z,9.60
2018-12-04T10:59:57.421Z,9.60
2018-12-04T11:02:31.957Z,9.70
2018-12-04T11:05:04.866Z,10.00
2018-12-04T11:07:37.168Z,10.00
2018-12-04T11:10:09.574Z,9.90
2018-12-04T11:12:41.992Z,9.70
2018-12-04T11:15:14.289Z,9.70
2018-12-04T11:17:46.696Z,9.70
2018-12-04T11:20:19.091Z,9.70
2018-12-04T11:22:51.460Z,9.50
2018-12-04T11:25:23.889Z,9.40
2018-12-04T11:27:56.234Z,9.30
2018-12-04T11:30:28.902Z,9.30
2018-12-04T11:33:01.202Z,9.20
2018-12-04T11:35:33.587Z,9.00
2018-12-04T11:38:06.145Z,9.00
2018-12-04T11:40:38.494Z,9.00
2018-12-04T11:43:10.849Z,9.00
2018-12-04T11:45:43.211Z,9.20
2018-12-04T11:48:22.634Z,9.30
2018-12-04T11:51:00.032Z,9.60
2018-12-04T11:53:29.508Z,9.50
2018-12-04T11:56:01.909Z,9.60
2018-12-04T11:58:34.269Z,9.70
2018-12-04T12:01:06.917Z,9.60
2018-12-04T12:03:39.354Z,9.70
2018-12-04T12:06:11.645Z,9.70
2018-12-04T12:08:44.127Z,9.80
2018-12-04T12:11:16.566Z,9.90
2018-12-04T12:13:48.989Z,10.00
2018-12-04T12:16:21.426Z,9.80
2018-12-04T12:19:00.705Z,9.90
2018-12-04T12:21:33.073Z,10.10
2018-12-04T12:24:05.406Z,10.10
2018-12-04T12:26:37.766Z,10.10
2018-12-04T12:29:10.021Z,10.10
2018-12-04T12:31:42.429Z,10.10
2018-12-04T12:34:14.879Z,10.00
2018-12-04T12:36:47.302Z,10.20
2018-12-04T12:39:19.705Z,10.30
2018-12-04T12:41:52.323Z,10.30
2018-12-04T12:44:24.610Z,10.20
2018-12-04T12:46:57.037Z,10.10
2018-12-04T12:49:29.540Z,10.10
2018-12-04T12:52:02.002Z,10.00
2018-12-04T12:54:34.661Z,9.90
2018-12-04T12:57:07.085Z,9.90
2018-12-04T12:59:39.649Z,9.90
2018-12-04T13:02:18.841Z,10.00
2018-12-04T13:04:51.258Z,10.00
2018-12-04T13:07:23.790Z,10.10
2018-12-04T13:09:56.278Z,10.10
2018-12-04T13:12:28.722Z,10.10
2018-12-04T13:15:00.963Z,10.10
2018-12-04T13:17:33.431Z,10.10
2018-12-04T13:20:06.192Z,10.10
2018-12-04T13:22:38.762Z,9.90
2018-12-04T13:25:11.389Z,9.80
2018-12-04T13:27:43.766Z,9.90
2018-12-04T13:30:16.242Z,10.10
2018-12-04T13:32:48.594Z,10.10
2018-12-04T13:35:21.054Z,10.10
2018-12-04T13:37:53.537Z,10.30
2018-12-04T13:40:25.966Z,10.50
2018-12-04T13:42:58.466Z,10.70
2018-12-04T13:45:30.890Z,10.80
2018-12-04T13:48:03.292Z,10.90
2018-12-04T13:50:35.739Z,10.80
2018-12-04T13:53:08.167Z,10.70
2018-12-04T13:55:41.545Z,10.80
2018-12-04T13:58:14.148Z,10.90
2018-12-04T14:00:46.641Z,10.90
2018-12-04T14:03:18.964Z,11.00
2018-12-04T14:05:52.636Z,11.10
2018-12-04T14:08:25.198Z,11.00
2018-12-04T14:10:57.656Z,10.90
2018-12-04T14:13:30.082Z,11.10
2018-12-04T14:16:02.514Z,11.20
2018-12-04T14:18:35.016Z,11.20
2018-12-04T14:21:07.481Z,11.20
2018-12-04T14:23:39.861Z,11.20
2018-12-04T14:26:12.319Z,11.00
2018-12-04T14:28:44.732Z,11.00
2018-12-04T14:31:17.217Z,10.80
2018-12-04T14:33:49.701Z,10.50
2018-12-04T14:36:22.226Z,10.40
2018-12-04T14:38:54.674Z,10.20
2018-12-04T14:41:27.078Z,10.10
2018-12-04T14:43:59.396Z,9.90
2018-12-04T14:46:31.845Z,9.70
2018-12-04T14:49:04.312Z,9.60
2018-12-04T14:51:39.570Z,9.60
2018-12-04T14:54:11.933Z,9.40
2018-12-04T14:56:44.399Z,9.40
2018-12-04T14:59:16.996Z,9.30
2018-12-04T15:01:49.323Z,9.30
2018-12-04T15:04:21.990Z,9.30
2018-12-04T15:06:54.378Z,9.10
2018-12-04T15:09:26.883Z,8.90
2018-12-04T15:11:59.456Z,8.90
2018-12-04T15:14:32.069Z,8.70
2018-12-04T15:17:04.558Z,8.70
2018-12-04T15:19:36.974Z,8.50
2018-12-04T15:22:09.349Z,8.60
2018-12-04T15:24:41.726Z,8.60
2018-12-04T15:27:14.211Z,8.50
2018-12-04T15:29:46.631Z,8.40
2018-12-04T15:32:19.193Z,8.30
2018-12-04T15:34:51.682Z,8.20
2018-12-04T15:37:24.118Z,8.10
2018-12-04T15:39:56.723Z,8.10
2018-12-04T15:42:29.084Z,8.10
2018-12-04T15:45:01.473Z,8.00
2018-12-04T15:47:34.057Z,7.90
2018-12-04T15:50:06.764Z,7.80
2018-12-04T15:52:39.298Z,7.70
2018-12-04T15:55:11.880Z,7.70
2018-12-04T15:57:44.462Z,7.60
2018-12-04T16:00:17.287Z,7.50
2018-12-04T16:02:49.694Z,7.50
2018-12-04T16:05:22.046Z,7.50
2018-12-04T16:07:54.415Z,7.50
2018-12-04T16:10:26.822Z,7.30
2018-12-04T16:12:59.229Z,7.30
2018-12-04T16:15:31.701Z,7.20
2018-12-04T16:18:04.002Z,7.10
2018-12-04T16:20:37.293Z,7.10
2018-12-04T16:23:09.921Z,7.10
2018-12-04T16:25:42.230Z,7.00
2018-12-04T16:28:14.517Z,7.00
2018-12-04T16:30:47.005Z,6.90
2018-12-04T16:33:19.406Z,6.90
2018-12-04T16:35:51.914Z,6.80
2018-12-04T16:38:24.381Z,6.70
2018-12-04T16:40:56.918Z,6.60
2018-12-04T16:43:29.474Z,6.60
2018-12-04T16:46:01.817Z,6.60
2018-12-04T16:48:34.152Z,6.60
2018-12-04T16:51:06.666Z,6.50
2018-12-04T16:53:39.323Z,6.40
2018-12-04T16:56:11.753Z,6.40
2018-12-04T16:58:44.379Z,6.40
2018-12-04T17:01:16.893Z,6.40
2018-12-04T17:03:49.347Z,6.30
2018-12-04T17:06:21.935Z,6.20
2018-12-04T17:08:54.186Z,6.20
2018-12-04T17:11:26.654Z,6.10
2018-12-04T17:13:58.859Z,6.10
2018-12-04T17:16:31.285Z,6.10
2018-12-04T17:19:03.961Z,6.10
2018-12-04T17:21:36.258Z,6.00
2018-12-04T17:24:08.690Z,6.10
2018-12-04T17:26:41.086Z,6.10
2018-12-04T17:29:13.426Z,6.00
2018-12-04T17:31:46.038Z,6.00
2018-12-04T17:34:18.289Z,6.00
2018-12-04T17:36:50.649Z,5.90
2018-12-04T17:39:22.981Z,5.90
2018-12-04T17:41:55.444Z,5.80
2018-12-04T17:44:27.897Z,5.80
2018-12-04T17:47:00.349Z,5.80
2018-12-04T17:49:32.754Z,5.80
2018-12-04T17:52:05.198Z,5.80
2018-12-04T17:54:37.601Z,5.80
2018-12-04T17:57:10.082Z,5.80
2018-12-04T17:59:49.545Z,5.80
2018-12-04T18:02:22.030Z,5.70
2018-12-04T18:04:54.425Z,5.70
2018-12-04T18:07:26.843Z,5.60
2018-12-04T18:09:59.269Z,5.60
2018-12-04T18:12:31.781Z,5.70
2018-12-04T18:15:05.174Z,5.70
2018-12-04T18:17:37.581Z,5.70
2018-12-04T18:20:09.981Z,5.60
2018-12-04T18:22:42.465Z,5.60
2018-12-04T18:25:14.720Z,5.60
2018-12-04T18:27:47.122Z,5.60
2018-12-04T18:30:19.661Z,5.60
2018-12-04T18:32:52.068Z,5.60
2018-12-04T18:35:24.497Z,5.60
2018-12-04T18:37:57.059Z,5.60
2018-12-04T18:40:29.893Z,5.60
2018-12-04T18:43:02.238Z,5.50
2018-12-04T18:45:34.730Z,5.50
2018-12-04T18:48:07.122Z,5.40
2018-12-04T18:50:39.462Z,5.40
2018-12-04T18:53:11.937Z,5.40
2018-12-04T18:55:44.342Z,5.30
2018-12-04T18:58:16.776Z,5.40
2018-12-04T19:00:49.236Z,5.40
2018-12-04T19:03:21.550Z,5.40
2018-12-04T19:05:53.973Z,5.30
2018-12-04T19:08:32.518Z,5.30
2018-12-04T19:11:05.045Z,5.30
2018-12-04T19:13:37.382Z,5.30
2018-12-04T19:16:09.793Z,5.20
2018-12-04T19:18:42.101Z,5.20
2018-12-04T19:21:14.690Z,5.20
2018-12-04T19:23:46.966Z,5.20
2018-12-04T19:26:19.821Z,5.10
2018-12-04T19:28:52.186Z,5.00
2018-12-04T19:31:24.678Z,5.10
2018-12-04T19:33:57.183Z,5.10
2018-12-04T19:36:29.409Z,5.00
2018-12-04T19:39:02.054Z,5.00
2018-12-04T19:41:34.410Z,5.00
2018-12-04T19:44:06.721Z,5.00
2018-12-04T19:46:39.211Z,5.00
2018-12-04T19:49:18.714Z,5.00
2018-12-04T19:51:51.106Z,4.90
2018-12-04T19:54:23.433Z,4.90
2018-12-04T19:56:55.856Z,4.80
2018-12-04T19:59:28.450Z,4.90
2018-12-04T20:02:00.859Z,4.80
2018-12-04T20:04:33.314Z,4.80
2018-12-04T20:07:05.690Z,4.80
2018-12-04T20:09:38.258Z,4.80
2018-12-04T20:12:10.862Z,4.80
2018-12-04T20:14:43.137Z,4.80
2018-12-04T20:17:15.466Z,4.80
2018-12-04T20:19:47.877Z,4.90
2018-12-04T20:22:20.262Z,4.90
2018-12-04T20:24:52.771Z,4.90
2018-12-04T20:27:25.183Z,5.00
2018-12-04T20:29:57.699Z,5.00
2018-12-04T20:32:30.098Z,4.90
2018-12-04T20:35:04.886Z,4.90
2018-12-04T20:37:37.389Z,4.80
2018-12-04T20:40:09.831Z,4.80
2018-12-04T20:42:42.126Z,4.80
2018-12-04T20:45:14.694Z,4.70
2018-12-04T20:47:47.925Z,4.70
2018-12-04T20:50:20.246Z,4.70
2018-12-04T20:52:52.565Z,4.70
2018-12-04T20:55:24.961Z,4.70
2018-12-04T20:57:57.678Z,4.60
2018-12-04T21:00:30.238Z,4.60
2018-12-04T21:03:02.571Z,4.60
2018-12-04T21:05:35.057Z,4.60
2018-12-04T21:08:07.508Z,4.50
2018-12-04T21:10:40.021Z,4.50
2018-12-04T21:13:14.572Z,4.40
2018-12-04T21:15:47.151Z,4.30
2018-12-04T21:18:19.418Z,4.30
2018-12-04T21:20:51.773Z,4.30
2018-12-04T21:23:24.138Z,4.30
2018-12-04T21:25:56.670Z,4.30
2018-12-04T21:28:29.058Z,4.30
2018-12-04T21:31:07.687Z,4.30
2018-12-04T21:33:46.245Z,4.20
2018-12-04T21:36:24.770Z,4.30
2018-12-04T21:39:01.110Z,4.30
2018-12-04T21:41:39.514Z,4.30
2018-12-04T21:44:18.027Z,4.30
2018-12-04T21:46:56.566Z,4.40
2018-12-04T21:51:58.897Z,4.40
2018-12-04T21:54:31.129Z,4.40
2018-12-04T21:57:03.658Z,4.40
2018-12-04T21:59:36.196Z,4.30
2018-12-04T22:02:08.650Z,4.30
2018-12-04T22:04:40.979Z,4.20
2018-12-04T22:07:13.564Z,4.20
2018-12-04T22:09:45.889Z,4.20
2018-12-04T22:12:18.322Z,4.10
2018-12-04T22:14:50.674Z,4.00
2018-12-04T22:17:23.001Z,4.10
2018-12-04T22:19:55.381Z,4.00
2018-12-04T22:22:27.770Z,4.00
2018-12-04T22:25:00.171Z,4.00
2018-12-04T22:27:32.618Z,3.90
2018-12-04T22:30:06.658Z,3.80
2018-12-04T22:32:38.942Z,3.80
2018-12-04T22:35:11.362Z,3.80
2018-12-04T22:37:43.905Z,3.80
2018-12-04T22:40:16.261Z,3.80
2018-12-04T22:42:48.744Z,3.90
2018-12-04T22:45:24.667Z,3.90
2018-12-04T22:47:57.166Z,3.90
2018-12-04T22:50:29.431Z,3.90
2018-12-04T22:53:01.841Z,3.90
2018-12-04T22:55:34.202Z,3.80
2018-12-04T22:58:06.751Z,3.80
2018-12-04T23:00:40.925Z,3.90
2018-12-04T23:03:13.596Z,3.80
2018-12-04T23:05:46.117Z,3.70
2018-12-04T23:08:18.457Z,3.60
2018-12-04T23:10:50.890Z,3.50
2018-12-04T23:13:23.443Z,3.60
2018-12-04T23:15:55.801Z,3.60
2018-12-04T23:18:29.285Z,3.50
2018-12-04T23:21:01.638Z,3.60
2018-12-04T23:23:34.054Z,3.60
2018-12-04T23:26:06.534Z,3.60
2018-12-04T23:28:38.966Z,3.60
2018-12-04T23:31:11.417Z,3.50
2018-12-04T23:33:43.751Z,3.50
2018-12-04T23:36:16.193Z,3.50
2018-12-04T23:38:48.719Z,3.50
2018-12-04T23:41:20.970Z,3.40
2018-12-04T23:43:53.380Z,3.40
2018-12-04T23:46:25.830Z,3.40
2018-12-04T23:48:58.267Z,3.30
2018-12-04T23:51:30.598Z,3.30
2018-12-04T23:54:03.209Z,3.20
2018-12-04T23:56:35.650Z,3.30
2018-12-04T23:59:08.155Z,3.30
